Time;durP1;ratioP1;P1;durP2;ratioP2;P2;SDS_P1;SDS_P2;PMS_P1;PMS_P2;Temp;Humidity;BMP_temperature;BMP_pressure;BME280_temperature;BME280_humidity;BME280_pressure;Samples;Min_cycle;Max_cycle;Signal;HPM_P1;HPM_P2
2023/10/07 00:01:26;;;;;;;13.07;6.37;;;14.10;99.90;;;;;;5077709;28;20771;-57
2023/10/07 00:03:53;;;;;;;12.30;6.07;;;14.10;99.90;;;;;;5077677;28;20461;-58
2023/10/07 00:06:25;;;;;;;13.10;6.03;;;14.10;99.90;;;;;;5077849;28;20493;-58
2023/10/07 00:08:53;;;;;;;7.83;5.93;;;14.00;99.90;;;;;;5077572;28;20926;-58
2023/10/07 00:11:20;;;;;;;11.33;6.40;;;14.00;99.90;;;;;;5077365;28;20883;-58
2023/10/07 00:13:54;;;;;;;10.00;6.03;;;14.00;99.90;;;;;;5076915;28;20476;-58
2023/10/07 00:16:23;;;;;;;9.73;6.20;;;13.90;99.90;;;;;;5076840;28;20750;-55
2023/10/07 00:18:50;;;;;;;9.47;6.60;;;13.90;99.90;;;;;;5077675;28;20465;-58
2023/10/07 00:21:26;;;;;;;8.67;5.63;;;13.90;99.90;;;;;;5076993;28;20496;-56
2023/10/07 00:23:54;;;;;;;11.43;6.37;;;13.90;99.90;;;;;;5076904;28;20767;-58
2023/10/07 00:26:21;;;;;;;11.60;6.40;;;13.90;99.90;;;;;;5077510;28;20457;-58
2023/10/07 00:29:00;;;;;;;10.43;6.10;;;13.90;99.90;;;;;;5077380;28;20562;-59
2023/10/07 00:31:29;;;;;;;10.57;6.17;;;13.90;99.90;;;;;;5077399;28;20885;-58
2023/10/07 00:34:04;;;;;;;9.63;5.90;;;13.90;99.90;;;;;;5077235;28;20937;-59
2023/10/07 00:36:42;;;;;;;9.60;6.00;;;13.90;1.00;;;;;;5076619;28;20461;-58
2023/10/07 00:39:19;;;;;;;8.20;5.60;;;13.80;1.00;;;;;;5076475;28;20465;-59
2023/10/07 00:41:50;;;;;;;10.33;6.07;;;13.90;1.00;;;;;;5076076;28;20460;-57
2023/10/07 00:44:22;;;;;;;9.27;6.30;;;13.80;1.00;;;;;;5075994;28;20468;-56
2023/10/07 00:47:01;;;;;;;9.83;5.87;;;13.80;1.00;;;;;;5076193;28;20461;-57
2023/10/07 00:49:29;;;;;;;9.07;6.40;;;13.80;1.00;;;;;;5076826;28;20512;-58
2023/10/07 00:51:58;;;;;;;9.30;6.00;;;13.80;1.00;;;;;;5077025;28;20485;-58
2023/10/07 00:54:44;;;;;;;13.90;6.20;;;13.70;1.00;;;;;;5077225;28;20465;-57
2023/10/07 00:57:23;;;;;;;8.80;5.70;;;13.70;1.00;;;;;;5076238;28;20705;-61
2023/10/07 00:59:57;;;;;;;10.40;6.27;;;13.70;1.00;;;;;;5076690;28;20461;-59
2023/10/07 01:02:29;;;;;;;8.50;5.60;;;13.70;1.00;;;;;;5076979;28;20489;-58
2023/10/07 01:05:00;;;;;;;12.73;6.73;;;13.70;1.00;;;;;;5076294;28;20461;-58
2023/10/07 01:07:28;;;;;;;9.97;6.00;;;13.70;1.00;;;;;;5077443;28;20465;-57
2023/10/07 01:10:12;;;;;;;10.60;5.90;;;13.60;1.00;;;;;;5076729;28;20562;-56
2023/10/07 01:12:42;;;;;;;7.07;5.63;;;13.60;1.00;;;;;;5076998;28;20489;-57
2023/10/07 01:15:22;;;;;;;11.63;5.77;;;13.70;1.00;;;;;;5076866;28;20555;-58
2023/10/07 01:17:54;;;;;;;11.57;6.00;;;13.70;1.00;;;;;;5076769;28;20468;-57
2023/10/07 01:20:24;;;;;;;12.10;5.70;;;13.70;1.00;;;;;;5076724;28;20461;-57
2023/10/07 01:23:03;;;;;;;9.93;7.03;;;13.80;1.00;;;;;;5077190;28;20490;-58
2023/10/07 01:25:34;;;;;;;9.63;6.40;;;13.80;1.00;;;;;;5077087;28;20878;-58
2023/10/07 01:28:04;;;;;;;9.20;6.60;;;13.80;1.00;;;;;;5077672;28;20435;-57
2023/10/07 01:30:34;;;;;;;9.30;6.87;;;13.90;1.00;;;;;;5080866;28;20908;-57
2023/10/07 01:33:09;;;;;;;9.73;5.17;;;13.90;1.00;;;;;;5080756;28;20462;-58
2023/10/07 01:35:47;;;;;;;10.50;5.80;;;13.90;1.00;;;;;;5080769;28;20518;-58
2023/10/07 01:38:18;;;;;;;11.60;6.10;;;14.00;1.00;;;;;;5080741;28;20904;-58
2023/10/07 01:40:55;;;;;;;7.70;5.70;;;14.10;1.00;;;;;;5080272;28;20461;-59
2023/10/07 01:43:23;;;;;;;9.30;5.60;;;14.00;1.00;;;;;;5080491;28;20906;-56
2023/10/07 01:45:52;;;;;;;13.10;6.73;;;14.00;1.00;;;;;;5080398;28;20511;-59
2023/10/07 01:48:20;;;;;;;9.93;5.90;;;14.10;1.00;;;;;;5080116;28;20465;-58
2023/10/07 01:50:49;;;;;;;12.63;7.17;;;14.10;1.00;;;;;;5080385;28;20439;-58
2023/10/07 01:53:18;;;;;;;14.60;6.20;;;14.10;1.00;;;;;;5080526;28;20461;-58
2023/10/07 01:55:46;;;;;;;9.33;5.53;;;14.10;1.00;;;;;;5079606;28;20461;-59
2023/10/07 01:58:14;;;;;;;9.03;6.40;;;14.10;1.00;;;;;;5079574;28;20465;-58
2023/10/07 02:00:45;;;;;;;11.37;7.20;;;14.10;1.00;;;;;;5080094;28;20465;-59
2023/10/07 02:03:16;;;;;;;11.40;5.47;;;14.10;1.00;;;;;;5079797;28;20511;-55
2023/10/07 02:05:47;;;;;;;9.50;6.17;;;14.20;1.00;;;;;;5079672;28;20526;-58
2023/10/07 02:08:18;;;;;;;10.50;6.33;;;14.20;1.00;;;;;;5080007;28;20576;-58
2023/10/07 02:10:47;;;;;;;10.87;6.43;;;14.20;1.00;;;;;;5079981;28;20522;-58
2023/10/07 02:13:19;;;;;;;8.80;6.93;;;14.20;1.00;;;;;;5080318;28;20460;-58
2023/10/07 02:15:46;;;;;;;10.80;7.03;;;14.20;1.00;;;;;;5079521;28;20475;-58
2023/10/07 02:18:15;;;;;;;9.10;7.10;;;14.20;1.00;;;;;;5080317;28;20540;-58
2023/10/07 02:20:49;;;;;;;15.27;8.30;;;14.20;1.00;;;;;;5079723;28;20502;-58
2023/10/07 02:23:22;;;;;;;15.00;8.10;;;14.20;1.00;;;;;;5080203;28;20551;-58
2023/10/07 02:25:51;;;;;;;15.57;7.83;;;14.20;1.00;;;;;;5079850;28;20729;-58
2023/10/07 02:28:21;;;;;;;11.93;8.37;;;14.20;1.00;;;;;;5079517;28;20464;-58
2023/10/07 02:31:00;;;;;;;11.27;7.93;;;14.20;1.00;;;;;;5079965;28;20526;-59
2023/10/07 02:33:28;;;;;;;11.87;8.13;;;14.10;1.00;;;;;;5079961;28;20583;-57
2023/10/07 02:35:57;;;;;;;12.33;8.00;;;14.10;1.00;;;;;;5079459;28;20510;-58
2023/10/07 02:38:36;;;;;;;8.87;6.03;;;14.20;1.00;;;;;;5079210;28;20461;-57
2023/10/07 02:41:16;;;;;;;12.87;7.67;;;14.20;1.00;;;;;;5079581;28;20886;-57
2023/10/07 02:43:48;;;;;;;15.30;8.93;;;14.20;1.00;;;;;;5079486;28;20784;-56
2023/10/07 02:46:31;;;;;;;18.13;7.90;;;14.20;1.00;;;;;;5079412;28;20462;-59
2023/10/07 02:49:05;;;;;;;11.80;8.50;;;14.20;1.00;;;;;;5079089;28;20515;-59
2023/10/07 02:51:33;;;;;;;14.10;8.90;;;14.10;1.00;;;;;;5078693;28;20461;-58
2023/10/07 02:54:04;;;;;;;14.77;7.50;;;14.20;1.00;;;;;;5078827;28;20507;-57
2023/10/07 02:56:43;;;;;;;13.67;8.77;;;14.20;1.00;;;;;;5078952;28;20518;-57
2023/10/07 02:59:23;;;;;;;11.90;7.87;;;14.10;1.00;;;;;;5079033;28;20582;-59
2023/10/07 03:02:12;;;;;;;13.67;9.30;;;14.20;1.00;;;;;;5079076;28;20462;-57
2023/10/07 03:04:42;;;;;;;13.37;8.37;;;14.10;1.00;;;;;;5078818;28;20481;-58
2023/10/07 03:07:14;;;;;;;14.60;10.27;;;14.10;1.00;;;;;;5079375;28;20461;-58
2023/10/07 03:09:45;;;;;;;11.90;9.50;;;14.10;1.00;;;;;;5078880;28;20485;-58
2023/10/07 03:12:15;;;;;;;14.93;11.10;;;14.10;1.00;;;;;;5078611;28;20436;-59
2023/10/07 03:14:44;;;;;;;12.97;9.23;;;14.10;1.00;;;;;;5078680;28;20458;-57
2023/10/07 03:17:18;;;;;;;15.60;11.10;;;14.10;1.00;;;;;;5079124;28;20519;-56
2023/10/07 03:19:53;;;;;;;18.27;12.00;;;14.10;1.00;;;;;;5078313;28;20462;-58
2023/10/07 03:22:28;;;;;;;21.53;11.90;;;14.10;1.00;;;;;;5074731;28;20664;-59
2023/10/07 03:25:00;;;;;;;15.07;11.20;;;14.10;1.00;;;;;;5058714;28;20902;-57
2023/10/07 03:27:39;;;;;;;16.77;12.47;;;14.10;1.00;;;;;;5067578;28;20893;-55
2023/10/07 03:30:18;;;;;;;17.20;12.27;;;14.10;1.00;;;;;;5077249;28;20446;-58
2023/10/07 03:32:56;;;;;;;18.10;12.00;;;14.10;1.00;;;;;;5077152;28;20526;-58
2023/10/07 03:35:44;;;;;;;14.77;12.23;;;14.10;1.00;;;;;;5076657;28;20518;-57
2023/10/07 03:38:11;;;;;;;22.63;13.20;;;14.10;1.00;;;;;;5076881;28;20559;-58
2023/10/07 03:40:39;;;;;;;17.93;12.60;;;14.10;6.10;;;;;;5077299;28;20430;-58
2023/10/07 03:43:09;;;;;;;16.70;13.17;;;14.10;5.60;;;;;;5077138;28;20829;-58
2023/10/07 03:45:40;;;;;;;19.57;12.27;;;14.10;17.20;;;;;;5077300;28;20811;-58
2023/10/07 03:48:22;;;;;;;20.37;14.00;;;14.10;19.80;;;;;;5077264;28;20461;-58
2023/10/07 03:50:59;;;;;;;14.63;11.93;;;14.10;20.00;;;;;;5077532;28;20461;-58
2023/10/07 03:53:31;;;;;;;18.63;13.40;;;14.10;54.10;;;;;;5078176;28;20457;-58
2023/10/07 03:56:00;;;;;;;16.30;12.87;;;14.10;28.00;;;;;;5077079;28;20469;-58
2023/10/07 03:58:32;;;;;;;18.43;13.20;;;14.10;18.90;;;;;;5077435;28;20436;-57
2023/10/07 04:01:04;;;;;;;17.23;12.90;;;14.20;19.00;;;;;;5078104;28;20503;-58
2023/10/07 04:03:35;;;;;;;17.63;13.60;;;14.20;12.30;;;;;;5078256;28;20534;-59
2023/10/07 04:06:04;;;;;;;17.37;13.33;;;14.20;1.00;;;;;;5078041;28;20886;-58
2023/10/07 04:08:33;;;;;;;20.63;14.83;;;14.20;9.70;;;;;;5077467;28;20917;-59
2023/10/07 04:11:03;;;;;;;16.80;12.43;;;14.20;16.50;;;;;;5077774;28;20457;-58
2023/10/07 04:13:32;;;;;;;20.20;14.60;;;14.20;7.80;;;;;;5077794;28;20911;-57
2023/10/07 04:15:59;;;;;;;18.73;14.50;;;14.20;13.40;;;;;;5076878;28;20561;-59
2023/10/07 04:18:35;;;;;;;16.63;12.87;;;14.20;22.20;;;;;;5077468;28;20493;-59
2023/10/07 04:21:03;;;;;;;13.67;12.27;;;14.10;19.40;;;;;;5077603;28;20894;-59
2023/10/07 04:23:31;;;;;;;19.60;14.43;;;14.20;25.30;;;;;;5077882;28;20493;-58
2023/10/07 04:26:05;;;;;;;20.57;15.07;;;14.20;29.60;;;;;;5077445;28;20459;-56
2023/10/07 04:28:34;;;;;;;15.53;14.00;;;14.20;28.50;;;;;;5077641;28;20458;-58
2023/10/07 04:31:09;;;;;;;22.23;14.57;;;14.20;45.10;;;;;;5077535;28;20432;-58
2023/10/07 04:33:41;;;;;;;18.13;14.30;;;14.10;73.20;;;;;;5077830;28;20431;-58
2023/10/07 04:36:14;;;;;;;25.83;15.00;;;14.20;60.10;;;;;;5077396;28;20465;-59
2023/10/07 04:38:52;;;;;;;16.13;13.37;;;14.20;62.20;;;;;;5077308;28;20504;-58
2023/10/07 04:41:36;;;;;;;16.27;13.93;;;14.20;65.70;;;;;;5077534;28;20485;-59
2023/10/07 04:45:00;;;;;;;21.40;14.80;;;14.20;67.70;;;;;;5077409;28;20489;-58
2023/10/07 04:47:20;;;;;;;19.93;14.20;;;14.10;76.60;;;;;;5077291;28;20470;-58
2023/10/07 04:49:55;;;;;;;16.57;13.10;;;14.20;90.90;;;;;;5077116;28;20465;-57
2023/10/07 04:52:24;;;;;;;19.50;15.67;;;14.20;97.40;;;;;;5077036;28;20460;-58
2023/10/07 04:54:52;;;;;;;21.13;15.73;;;14.20;99.90;;;;;;5077332;28;20890;-59
2023/10/07 04:57:39;;;;;;;20.73;15.27;;;14.30;88.30;;;;;;5076500;28;20559;-59
2023/10/07 05:00:17;;;;;;;15.93;14.27;;;14.30;91.60;;;;;;5076884;28;20559;-59
2023/10/07 05:02:44;;;;;;;20.33;14.50;;;14.20;77.50;;;;;;5078124;28;20471;-58
2023/10/07 05:05:13;;;;;;;20.40;14.40;;;14.30;80.80;;;;;;5081662;28;20941;-59
2023/10/07 05:07:43;;;;;;;23.00;16.10;;;14.20;90.20;;;;;;5081214;28;20963;-58
2023/10/07 05:10:10;;;;;;;19.07;15.93;;;14.20;99.90;;;;;;5081052;28;20922;-58
2023/10/07 05:12:39;;;;;;;16.27;14.50;;;14.30;99.90;;;;;;5081448;28;20457;-59
2023/10/07 05:15:08;;;;;;;23.60;15.37;;;14.30;99.90;;;;;;5079725;28;20453;-59
2023/10/07 05:17:36;;;;;;;16.13;14.30;;;14.30;92.60;;;;;;5080341;28;20460;-58
2023/10/07 05:20:26;;;;;;;17.77;15.63;;;14.30;99.80;;;;;;5079055;28;20472;-59
2023/10/07 05:22:50;;;;;;;17.00;14.70;;;14.30;96.20;;;;;;5079450;28;20481;-59
2023/10/07 05:25:17;;;;;;;21.90;14.17;;;14.30;99.90;;;;;;5081044;28;20516;-58
2023/10/07 05:27:44;;;;;;;21.27;16.17;;;14.30;94.20;;;;;;5080357;28;20457;-59
2023/10/07 05:30:15;;;;;;;16.90;13.97;;;14.30;91.30;;;;;;5080712;28;20759;-58
2023/10/07 05:32:45;;;;;;;20.20;14.40;;;14.30;99.90;;;;;;5080694;28;20468;-58
2023/10/07 05:35:14;;;;;;;22.87;15.03;;;14.30;99.90;;;;;;5081012;28;20457;-58
2023/10/07 05:37:42;;;;;;;15.00;13.40;;;14.40;99.90;;;;;;5080868;28;20504;-59
2023/10/07 05:40:13;;;;;;;20.40;13.90;;;14.30;99.90;;;;;;5078480;28;20461;-59
2023/10/07 05:42:40;;;;;;;22.03;14.20;;;14.30;99.90;;;;;;5078776;28;20484;-57
2023/10/07 05:45:09;;;;;;;16.43;12.33;;;14.40;99.90;;;;;;5079020;28;20500;-58
2023/10/07 05:47:38;;;;;;;22.70;14.70;;;14.40;99.90;;;;;;5079090;28;20467;-57
2023/10/07 05:50:08;;;;;;;19.53;14.83;;;14.40;99.90;;;;;;5077886;28;20548;-58
2023/10/07 05:52:35;;;;;;;17.73;15.00;;;14.40;99.90;;;;;;5078306;28;20464;-58
2023/10/07 05:55:03;;;;;;;19.57;14.90;;;14.40;99.90;;;;;;5079843;28;20457;-58
2023/10/07 05:57:30;;;;;;;19.30;14.10;;;14.50;99.90;;;;;;5080126;28;20465;-57
2023/10/07 05:59:58;;;;;;;17.67;15.00;;;14.50;99.90;;;;;;5079943;28;20555;-56
2023/10/07 06:02:26;;;;;;;22.10;15.20;;;14.50;99.90;;;;;;5079669;28;20515;-58
2023/10/07 06:04:54;;;;;;;19.87;15.07;;;14.50;87.30;;;;;;5080030;28;20587;-57
2023/10/07 06:07:22;;;;;;;19.83;15.90;;;14.50;77.10;;;;;;5079924;28;20432;-58
2023/10/07 06:09:50;;;;;;;20.37;15.30;;;14.50;76.30;;;;;;5079692;28;20487;-57
2023/10/07 06:12:18;;;;;;;19.03;15.07;;;14.50;58.90;;;;;;5079546;28;20552;-59
2023/10/07 06:14:45;;;;;;;20.23;15.37;;;14.60;67.40;;;;;;5079457;28;20485;-57
2023/10/07 06:17:12;;;;;;;19.50;15.30;;;14.50;52.90;;;;;;5080079;28;20461;-59
2023/10/07 06:19:43;;;;;;;21.50;14.17;;;14.60;38.90;;;;;;5079244;28;20460;-57
2023/10/07 06:22:12;;;;;;;15.83;14.07;;;14.60;35.70;;;;;;5079522;28;20470;-58
2023/10/07 06:24:41;;;;;;;18.97;13.90;;;14.60;40.70;;;;;;5079896;28;20824;-59
2023/10/07 06:27:11;;;;;;;21.07;13.10;;;14.60;27.50;;;;;;5079603;28;20461;-58
2023/10/07 06:29:43;;;;;;;15.90;11.30;;;14.50;27.70;;;;;;5080038;28;20432;-58
2023/10/07 06:32:22;;;;;;;16.20;12.83;;;14.60;44.50;;;;;;5079539;28;20465;-59
2023/10/07 06:34:51;;;;;;;13.60;12.10;;;14.60;33.10;;;;;;5079310;28;20436;-59
2023/10/07 06:37:28;;;;;;;14.33;12.40;;;14.70;27.70;;;;;;5079454;28;20564;-58
2023/10/07 06:39:57;;;;;;;15.50;12.27;;;14.60;18.80;;;;;;5079209;28;20655;-58
2023/10/07 06:42:26;;;;;;;16.47;12.07;;;14.60;34.60;;;;;;5079410;28;20464;-58
2023/10/07 06:44:56;;;;;;;17.30;12.73;;;14.60;41.80;;;;;;5079445;28;20588;-59
2023/10/07 06:47:29;;;;;;;16.80;14.83;;;14.70;52.30;;;;;;5078346;28;20456;-58
2023/10/07 06:49:58;;;;;;;17.63;13.10;;;14.80;47.20;;;;;;5079145;28;20909;-59
2023/10/07 06:52:27;;;;;;;16.63;13.87;;;14.70;29.70;;;;;;5079125;28;20510;-59
2023/10/07 06:54:55;;;;;;;13.93;12.53;;;14.70;24.00;;;;;;5078870;28;20547;-57
2023/10/07 06:57:28;;;;;;;14.77;13.27;;;14.70;23.30;;;;;;5078654;28;20461;-58
2023/10/07 06:59:55;;;;;;;14.60;12.50;;;14.80;31.40;;;;;;5079158;28;20737;-57
2023/10/07 07:02:34;;;;;;;18.53;13.00;;;14.80;15.20;;;;;;5079207;28;20461;-58
2023/10/07 07:05:03;;;;;;;13.73;12.30;;;14.90;11.90;;;;;;5078923;28;20497;-58
2023/10/07 07:07:37;;;;;;;12.40;11.10;;;14.90;1.00;;;;;;5079013;28;20501;-58
2023/10/07 07:10:07;;;;;;;14.30;10.50;;;15.00;1.00;;;;;;5078584;28;20485;-56
2023/10/07 07:12:34;;;;;;;13.37;10.93;;;14.90;1.00;;;;;;5079019;28;20462;-58
2023/10/07 07:15:05;;;;;;;19.73;11.70;;;15.00;1.00;;;;;;5079098;28;20453;-58
2023/10/07 07:17:43;;;;;;;16.97;11.07;;;15.00;1.00;;;;;;5079097;28;20440;-59
2023/10/07 07:20:29;;;;;;;15.17;11.43;;;15.00;1.00;;;;;;5078584;28;20556;-58
2023/10/07 07:22:59;;;;;;;16.10;10.93;;;15.00;1.00;;;;;;5078752;28;20905;-58
2023/10/07 07:25:36;;;;;;;12.97;10.07;;;15.00;1.00;;;;;;5077438;28;20489;-59
2023/10/07 07:28:04;;;;;;;13.27;10.97;;;15.10;1.00;;;;;;5078347;28;20453;-58
2023/10/07 07:30:34;;;;;;;14.63;10.30;;;15.10;1.00;;;;;;5078624;28;20784;-58
2023/10/07 07:33:08;;;;;;;12.27;10.37;;;15.10;1.00;;;;;;5078291;28;20475;-59
2023/10/07 07:35:40;;;;;;;13.57;9.23;;;15.10;1.00;;;;;;5078546;28;20456;-59
2023/10/07 07:38:20;;;;;;;11.93;9.40;;;15.20;1.00;;;;;;5078647;28;20447;-58
2023/10/07 07:40:49;;;;;;;12.90;10.27;;;15.30;1.00;;;;;;5078037;28;20461;-57
2023/10/07 07:43:19;;;;;;;12.17;9.33;;;15.30;1.00;;;;;;5078154;28;20950;-58
2023/10/07 07:45:55;;;;;;;14.60;10.43;;;15.30;1.00;;;;;;5077510;28;20497;-58
2023/10/07 07:48:25;;;;;;;11.70;8.90;;;15.30;1.00;;;;;;5077349;28;20856;-58
2023/10/07 07:50:55;;;;;;;15.77;9.90;;;15.30;1.00;;;;;;5077026;28;20509;-57
2023/10/07 07:53:23;;;;;;;13.90;9.67;;;15.30;1.00;;;;;;5076708;28;20468;-58
2023/10/07 07:55:55;;;;;;;10.40;9.30;;;15.40;1.00;;;;;;5076683;28;20454;-58
2023/10/07 07:58:23;;;;;;;12.67;8.43;;;15.40;1.00;;;;;;5076718;28;20471;-58
2023/10/07 08:00:58;;;;;;;20.30;10.30;;;15.30;1.00;;;;;;5077403;28;20462;-58
2023/10/07 08:03:26;;;;;;;13.33;9.13;;;15.40;1.00;;;;;;5062969;28;20473;-57
2023/10/07 08:05:54;;;;;;;10.70;8.87;;;15.50;1.00;;;;;;5057262;28;20494;-58
2023/10/07 08:08:24;;;;;;;12.33;9.23;;;15.50;1.00;;;;;;5057447;28;20486;-59
2023/10/07 08:10:54;;;;;;;8.60;7.67;;;15.40;1.00;;;;;;5057539;28;20527;-57
2023/10/07 08:13:24;;;;;;;11.50;8.93;;;15.50;1.00;;;;;;5057424;28;20469;-59
2023/10/07 08:15:53;;;;;;;13.10;8.77;;;15.60;1.00;;;;;;5058046;28;20945;-58
2023/10/07 08:18:22;;;;;;;12.97;7.80;;;15.60;1.00;;;;;;5057638;28;20465;-59
2023/10/07 08:20:56;;;;;;;15.67;8.53;;;15.70;1.00;;;;;;5056094;28;20462;-59
2023/10/07 08:23:28;;;;;;;11.03;7.77;;;15.80;1.00;;;;;;5055260;28;20541;-58
2023/10/07 08:26:08;;;;;;;16.43;8.47;;;15.90;1.00;;;;;;5055119;28;21022;-59
2023/10/07 08:28:42;;;;;;;16.13;8.93;;;15.90;1.00;;;;;;5056004;28;20462;-59
2023/10/07 08:31:20;;;;;;;16.77;8.00;;;16.00;1.00;;;;;;5056283;28;20882;-59
2023/10/07 08:33:53;;;;;;;12.47;7.27;;;16.00;1.00;;;;;;5056214;28;20501;-58
2023/10/07 08:36:29;;;;;;;11.73;7.50;;;16.10;1.00;;;;;;5056525;28;20467;-59
2023/10/07 08:38:58;;;;;;;10.23;8.00;;;16.20;1.00;;;;;;5056769;28;20462;-59
2023/10/07 08:41:29;;;;;;;10.90;7.80;;;16.10;1.00;;;;;;5057605;28;20799;-58
2023/10/07 08:44:13;;;;;;;9.50;7.60;;;16.20;1.00;;;;;;5056885;28;20899;-57
2023/10/07 08:46:40;;;;;;;9.63;6.47;;;16.30;1.00;;;;;;5057647;28;20450;-59
2023/10/07 08:49:13;;;;;;;9.40;6.63;;;16.30;1.00;;;;;;5058210;28;20543;-58
2023/10/07 08:51:43;;;;;;;11.23;7.30;;;16.20;1.00;;;;;;5062013;28;20679;-59
2023/10/07 08:54:19;;;;;;;9.87;6.90;;;16.30;1.00;;;;;;5077481;28;20454;-59
2023/10/07 08:56:54;;;;;;;10.67;7.53;;;16.30;1.00;;;;;;5077238;28;20730;-59
2023/10/07 08:59:25;;;;;;;10.67;7.13;;;16.30;1.00;;;;;;5076683;28;20899;-58
2023/10/07 09:01:57;;;;;;;12.70;7.83;;;16.20;1.00;;;;;;5077431;28;20803;-58
2023/10/07 09:04:26;;;;;;;13.50;7.27;;;16.30;1.00;;;;;;5077254;28;20497;-58
2023/10/07 09:06:53;;;;;;;10.53;7.30;;;16.30;1.00;;;;;;5076733;28;20472;-58
2023/10/07 09:09:38;;;;;;;9.27;6.37;;;16.30;1.00;;;;;;5077104;28;20481;-59
2023/10/07 09:12:14;;;;;;;9.40;7.03;;;16.50;1.00;;;;;;5077206;28;20473;-59
2023/10/07 09:14:51;;;;;;;10.60;7.03;;;16.70;1.00;;;;;;5077399;28;20476;-58
2023/10/07 09:17:21;;;;;;;9.73;6.27;;;16.70;99.90;;;;;;5075315;28;20507;-59
2023/10/07 09:19:49;;;;;;;10.60;7.07;;;16.60;99.90;;;;;;5076247;28;20555;-58
2023/10/07 09:22:21;;;;;;;8.47;6.77;;;16.60;99.90;;;;;;5076905;28;20457;-59
2023/10/07 09:24:48;;;;;;;8.60;6.70;;;16.70;99.90;;;;;;5076620;28;20584;-59
2023/10/07 09:27:36;;;;;;;9.00;6.40;;;16.90;99.90;;;;;;5076715;28;20501;-59
2023/10/07 09:30:32;;;;;;;7.10;5.53;;;16.90;99.90;;;;;;5075263;28;20581;-59
2023/10/07 09:32:56;;;;;;;9.13;7.00;;;17.30;99.90;;;;;;5075365;28;20487;-59
2023/10/07 09:35:25;;;;;;;10.93;7.17;;;17.50;99.90;;;;;;5076464;28;20511;-59
2023/10/07 09:37:54;;;;;;;9.53;6.50;;;17.70;99.90;;;;;;5076648;28;20535;-58
2023/10/07 09:43:13;;;;;;;12.43;6.60;;;18.70;99.90;;;;;;5076201;28;20457;-58
2023/10/07 09:45:40;;;;;;;10.47;5.33;;;18.50;76.40;;;;;;5075974;28;20469;-58
2023/10/07 09:48:09;;;;;;;8.27;5.57;;;18.80;99.90;;;;;;5076554;28;20458;-58
2023/10/07 09:50:38;;;;;;;9.80;5.77;;;19.00;33.60;;;;;;5079488;28;20491;-59
2023/10/07 09:53:30;;;;;;;7.27;4.53;;;19.20;99.90;;;;;;5079717;28;20460;-59
2023/10/07 09:56:12;;;;;;;8.37;5.57;;;19.40;9.80;;;;;;5080168;28;20474;-59
2023/10/07 09:59:13;;;;;;;8.20;5.60;;;19.50;1.00;;;;;;5080565;28;20448;-59
2023/10/07 10:02:05;;;;;;;11.20;5.80;;;19.90;1.00;;;;;;5080286;28;20785;-59
2023/10/07 10:04:47;;;;;;;9.77;5.70;;;20.10;1.00;;;;;;5080047;28;20548;-59
2023/10/07 10:07:53;;;;;;;7.17;5.70;;;20.30;1.00;;;;;;5079941;28;20456;-59
2023/10/07 10:10:31;;;;;;;6.50;4.77;;;20.60;1.00;;;;;;5079899;28;20461;-60
2023/10/07 10:13:07;;;;;;;9.40;5.40;;;21.10;1.00;;;;;;5080046;28;20809;-59
2023/10/07 10:15:53;;;;;;;8.13;4.90;;;20.90;99.90;;;;;;5079416;28;20453;-59
2023/10/07 10:18:36;;;;;;;7.50;4.83;;;21.00;99.90;;;;;;5079792;28;20511;-59
2023/10/07 10:21:09;;;;;;;6.47;4.53;;;21.20;99.90;;;;;;5079584;28;20446;-59
2023/10/07 10:23:37;;;;;;;10.30;4.67;;;21.50;99.90;;;;;;5079894;28;20526;-59
2023/10/07 10:26:14;;;;;;;5.90;3.73;;;21.60;99.90;;;;;;5079408;28;20462;-60
2023/10/07 10:28:43;;;;;;;8.23;5.53;;;21.40;99.90;;;;;;5079955;28;20460;-59
2023/10/07 10:31:22;;;;;;;8.90;4.53;;;21.30;99.90;;;;;;5079158;28;20539;-60
2023/10/07 10:33:50;;;;;;;8.30;4.97;;;21.10;99.90;;;;;;5079330;28;20563;-65
2023/10/07 10:36:21;;;;;;;9.30;5.10;;;21.10;99.90;;;;;;5079731;28;20461;-60
2023/10/07 10:38:49;;;;;;;8.37;5.40;;;21.20;99.90;;;;;;5078911;28;20465;-59
2023/10/07 10:41:27;;;;;;;9.53;4.80;;;21.00;99.90;;;;;;5079346;28;20962;-59
2023/10/07 10:44:10;;;;;;;8.63;4.23;;;20.90;99.90;;;;;;5079307;28;20812;-59
2023/10/07 10:46:46;;;;;;;5.67;4.67;;;21.20;99.90;;;;;;5079261;28;20547;-59
2023/10/07 10:49:15;;;;;;;6.40;4.30;;;21.30;99.90;;;;;;5079105;28;20510;-63
2023/10/07 10:51:46;;;;;;;10.23;4.70;;;21.10;99.90;;;;;;5078015;28;20468;-59
2023/10/07 10:54:17;;;;;;;8.20;5.40;;;21.40;99.90;;;;;;5079233;28;20465;-60
2023/10/07 10:56:55;;;;;;;6.10;5.20;;;21.50;99.90;;;;;;5068880;28;20466;-60
2023/10/07 10:59:34;;;;;;;7.57;4.73;;;21.50;99.90;;;;;;5077411;28;20461;-60
2023/10/07 11:02:05;;;;;;;5.20;4.30;;;21.30;99.90;;;;;;5078110;28;20453;-60
2023/10/07 11:04:35;;;;;;;10.53;7.37;;;21.40;99.90;;;;;;5077444;28;20836;-58
2023/10/07 11:07:04;;;;;;;6.03;5.07;;;21.50;99.90;;;;;;5069349;28;20524;-63
2023/10/07 11:09:37;;;;;;;8.70;4.77;;;21.70;99.90;;;;;;5076276;28;20489;-61
2023/10/07 11:12:12;;;;;;;7.27;3.70;;;21.50;99.90;;;;;;5076285;28;20461;-59
2023/10/07 11:14:41;;;;;;;9.53;5.50;;;21.80;99.90;;;;;;5075705;28;20507;-59
2023/10/07 11:17:12;;;;;;;7.43;4.17;;;22.50;99.90;;;;;;5075724;28;20523;-59
2023/10/07 11:19:42;;;;;;;14.00;4.80;;;22.70;96.20;;;;;;5076386;28;20943;-59
2023/10/07 11:22:19;;;;;;;7.63;4.43;;;22.70;69.40;;;;;;5075675;28;20469;-60
2023/10/07 11:24:49;;;;;;;8.00;4.83;;;22.50;8.40;;;;;;5076183;28;20473;-59
2023/10/07 11:27:17;;;;;;;5.77;4.20;;;22.60;14.60;;;;;;5076729;28;20534;-60
2023/10/07 11:29:45;;;;;;;10.20;5.47;;;22.80;1.00;;;;;;5071279;28;20803;-61
2023/10/07 11:32:13;;;;;;;8.47;4.30;;;22.90;1.00;;;;;;5059749;28;20476;-56
2023/10/07 11:34:43;;;;;;;7.80;4.87;;;23.00;1.00;;;;;;5056520;28;20735;-60
2023/10/07 11:37:16;;;;;;;5.17;4.53;;;22.70;1.00;;;;;;5056857;28;20454;-60
2023/10/07 11:39:45;;;;;;;8.80;4.67;;;22.90;1.00;;;;;;5057303;28;20458;-62
2023/10/07 11:42:14;;;;;;;6.83;5.00;;;22.80;1.00;;;;;;5057968;28;20497;-64
2023/10/07 11:44:46;;;;;;;8.97;4.70;;;22.50;1.00;;;;;;5057553;28;20450;-59
2023/10/07 11:47:16;;;;;;;5.13;3.60;;;22.40;1.00;;;;;;5058098;28;20505;-60
2023/10/07 11:49:46;;;;;;;5.37;4.20;;;22.20;1.00;;;;;;5057740;28;20796;-60
2023/10/07 11:52:14;;;;;;;5.57;4.27;;;22.10;1.00;;;;;;5058602;28;20902;-59
2023/10/07 11:54:43;;;;;;;6.53;4.20;;;22.20;1.00;;;;;;5077820;28;20777;-59
2023/10/07 11:57:10;;;;;;;7.43;4.10;;;22.20;1.00;;;;;;5077937;28;20493;-60
2023/10/07 11:59:41;;;;;;;6.97;4.40;;;22.00;1.00;;;;;;5077585;28;20469;-63
2023/10/07 12:02:10;;;;;;;6.10;4.40;;;22.00;1.00;;;;;;5077913;28;20462;-59
2023/10/07 12:04:41;;;;;;;5.80;4.10;;;22.50;1.00;;;;;;5077935;28;20773;-60
2023/10/07 12:07:12;;;;;;;4.70;4.00;;;22.90;1.00;;;;;;5077080;28;20500;-60
2023/10/07 12:09:40;;;;;;;5.90;4.37;;;22.90;1.00;;;;;;5057465;28;20490;-62
2023/10/07 12:12:11;;;;;;;7.70;4.07;;;22.50;1.00;;;;;;5057524;28;20504;-59
2023/10/07 12:14:38;;;;;;;6.87;4.30;;;22.80;1.00;;;;;;5062198;28;20504;-61
2023/10/07 12:17:07;;;;;;;4.67;4.17;;;22.90;1.00;;;;;;5073457;28;20886;-59
2023/10/07 12:19:36;;;;;;;8.53;4.60;;;22.80;1.00;;;;;;5067831;28;20545;-59
2023/10/07 12:22:06;;;;;;;4.80;3.70;;;22.90;1.00;;;;;;5055894;28;20488;-60
2023/10/07 12:24:34;;;;;;;5.30;3.90;;;23.00;1.00;;;;;;5056822;28;20461;-60
2023/10/07 12:27:01;;;;;;;4.70;4.03;;;23.00;1.00;;;;;;5057192;28;20493;-62
2023/10/07 12:29:29;;;;;;;6.27;4.40;;;22.90;1.00;;;;;;5056775;28;20433;-59
2023/10/07 12:31:57;;;;;;;10.50;4.73;;;22.70;1.00;;;;;;5075637;28;20471;-60
2023/10/07 12:34:24;;;;;;;7.97;4.50;;;22.40;1.00;;;;;;5070565;28;20557;-59
2023/10/07 12:36:53;;;;;;;7.10;4.40;;;22.50;1.00;;;;;;5068644;28;20501;-60
2023/10/07 12:39:22;;;;;;;5.87;3.77;;;22.70;1.00;;;;;;5075769;28;20461;-59
2023/10/07 12:41:50;;;;;;;5.53;4.50;;;22.80;1.00;;;;;;5076358;28;20457;-61
2023/10/07 12:44:17;;;;;;;5.43;4.23;;;22.60;1.00;;;;;;5077592;28;20511;-61
2023/10/07 12:46:45;;;;;;;6.10;3.90;;;22.50;1.00;;;;;;5075568;28;20499;-61
2023/10/07 12:49:14;;;;;;;6.67;3.80;;;22.70;1.00;;;;;;5076817;28;20493;-59
2023/10/07 12:51:42;;;;;;;6.47;3.93;;;22.90;1.00;;;;;;5077304;28;20902;-60
2023/10/07 12:54:10;;;;;;;5.70;4.07;;;23.20;1.00;;;;;;5077467;28;20559;-62
2023/10/07 12:56:42;;;;;;;9.03;4.03;;;23.30;1.00;;;;;;5076591;28;20479;-62
2023/10/07 12:59:21;;;;;;;7.43;4.00;;;23.20;99.90;;;;;;5076336;28;20461;-63
2023/10/07 13:01:51;;;;;;;5.30;4.80;;;23.00;99.90;;;;;;5075403;28;20781;-59
2023/10/07 13:04:25;;;;;;;7.30;4.43;;;22.90;99.90;;;;;;5073663;28;21018;-60
2023/10/07 13:06:57;;;;;;;6.43;4.70;;;23.00;99.90;;;;;;5073989;28;20492;-60
2023/10/07 13:09:29;;;;;;;6.47;4.77;;;23.20;99.90;;;;;;5074665;28;20493;-60
2023/10/07 13:11:58;;;;;;;5.97;4.53;;;23.30;99.90;;;;;;5074109;28;20461;-60